createdAt,value
2024-01-15T00:00:26.945Z,13.93
2024-01-15T00:10:27.149Z,13.71
2024-01-15T00:20:50.302Z,14.57
2024-01-15T00:31:12.798Z,15.2
2024-01-15T00:40:39.419Z,15.94
2024-01-15T00:50:39.732Z,15.7
2024-01-15T01:00:40.979Z,16.44
2024-01-15T01:10:41.274Z,15.69
2024-01-15T01:20:41.351Z,16.48
2024-01-15T01:30:41.684Z,21.03
2024-01-15T01:40:44.920Z,22.27
2024-01-15T01:50:47.944Z,21.04
2024-01-15T02:00:57.873Z,21.45
2024-01-15T02:11:15.210Z,21.19
2024-01-15T02:21:15.487Z,19.07
2024-01-15T02:31:25.523Z,19.54
2024-01-15T02:41:35.275Z,19.44
2024-01-15T02:51:45.308Z,18.66
2024-01-15T03:01:45.178Z,20.14
2024-01-15T03:11:55.083Z,21.12
2024-01-15T03:22:06.120Z,23.79
2024-01-15T03:32:06.073Z,17.97
2024-01-15T03:42:16.009Z,19.94
2024-01-15T03:52:25.991Z,23.09
2024-01-15T04:02:28.361Z,21.86
2024-01-15T04:12:30.660Z,23.04
2024-01-15T04:22:30.476Z,23.25
2024-01-15T04:32:40.420Z,21.67
2024-01-15T04:42:50.532Z,20.98
2024-01-15T04:52:50.412Z,19.37
2024-01-15T05:03:00.279Z,22.19
2024-01-15T05:13:10.187Z,19.14
2024-01-15T05:23:21.111Z,16.95
2024-01-15T05:33:20.680Z,23.94
2024-01-15T05:43:30.452Z,23.01
2024-01-15T05:53:40.376Z,20.95
2024-01-15T06:03:50.283Z,22.38
2024-01-15T06:14:04.214Z,20.01
2024-01-15T06:24:05.362Z,21.58
2024-01-15T06:34:05.814Z,20.91
2024-01-15T06:44:08.642Z,22.19
2024-01-15T06:54:14.883Z,24.16
2024-01-15T07:04:14.637Z,24.77
2024-01-15T07:14:16.909Z,23.14
2024-01-15T07:24:21.427Z,23.44
2024-01-15T07:34:24.460Z,23.29
2024-01-15T07:44:26.111Z,21.81
2024-01-15T07:54:26.407Z,20.72
2024-01-15T08:04:26.885Z,20.18
2024-01-15T08:14:26.724Z,26.07
2024-01-15T08:24:36.953Z,25.14
2024-01-15T08:34:36.046Z,26.43
2024-01-15T08:44:54.425Z,23.63
2024-01-15T08:54:47.141Z,23.49
2024-01-15T09:04:48.370Z,22.52
2024-01-15T09:14:55.914Z,16.54
2024-01-15T09:24:55.825Z,18.05
2024-01-15T09:34:58.183Z,13.41
2024-01-15T09:45:08.041Z,13.91
2024-01-15T09:55:18.281Z,18.2
2024-01-15T10:05:18.006Z,16.01
2024-01-15T10:15:28.104Z,13.94
2024-01-15T10:25:37.975Z,15.17
2024-01-15T10:35:41.115Z,25.24
2024-01-15T10:45:45.661Z,21.04
2024-01-15T10:55:50.911Z,20.51
2024-01-15T11:05:58.379Z,22.25
2024-01-15T11:16:07.871Z,22.4
2024-01-15T11:26:11.965Z,14.89
2024-01-15T11:36:17.528Z,15.88
2024-01-15T11:46:20.949Z,14.02
2024-01-15T12:06:25.023Z,9.48
2024-01-15T12:16:38.157Z,8.83
2024-01-15T12:26:30.713Z,11.98
2024-01-15T12:36:30.970Z,9.83
2024-01-15T12:46:31.250Z,10.56
2024-01-15T12:56:32.484Z,12.03
2024-01-15T13:06:32.638Z,12.68
2024-01-15T13:16:42.634Z,15.89
2024-01-15T13:26:43.951Z,20.26
2024-01-15T13:36:45.905Z,12.85
2024-01-15T13:46:47.000Z,14.06
2024-01-15T13:56:47.044Z,17.21
2024-01-15T14:06:51.471Z,13.03
2024-01-15T14:16:53.835Z,11.2
2024-01-15T14:26:56.512Z,12.74
2024-01-15T14:37:01.468Z,12.52
2024-01-15T14:47:05.636Z,11.88
2024-01-15T14:57:09.343Z,15.13
2024-01-15T15:07:37.743Z,15.27
2024-01-15T15:17:11.824Z,5.22
2024-01-15T15:27:12.459Z,5.51
2024-01-15T15:37:15.077Z,5.83
2024-01-15T15:47:18.494Z,5.02
2024-01-15T15:57:21.578Z,5.68
2024-01-15T16:07:21.915Z,4.59
2024-01-15T16:23:00.986Z,6.08
2024-01-15T16:27:32.956Z,6.7
2024-01-15T16:37:35.109Z,8.12
2024-01-15T16:47:35.020Z,8.8
2024-01-15T16:57:44.445Z,13.48
2024-01-15T17:07:54.394Z,7.08
2024-01-15T17:18:27.856Z,7.28
2024-01-15T17:28:16.128Z,6.55
2024-01-15T17:38:16.302Z,5.1
2024-01-15T17:48:19.113Z,8.61
2024-01-15T17:58:19.207Z,6.13
2024-01-15T18:08:20.389Z,6.07
2024-01-15T18:18:21.539Z,7.02
2024-01-15T18:28:21.742Z,5.54
2024-01-15T18:38:27.805Z,5.24
2024-01-15T18:48:36.079Z,7.04
2024-01-15T18:58:41.450Z,7.88
2024-01-15T19:08:44.920Z,11.22
2024-01-15T19:18:46.196Z,11.13
2024-01-15T19:28:51.799Z,11.14
2024-01-15T19:48:57.602Z,11.23
2024-01-15T20:09:03.746Z,17.37
2024-01-15T20:29:12.083Z,24.02
2024-01-15T20:39:15.965Z,26.05
2024-01-15T20:59:19.350Z,16.23
2024-01-15T21:09:24.612Z,16.11
2024-01-15T21:19:26.262Z,17.07
2024-01-15T21:29:39.900Z,19.47
2024-01-15T21:39:37.713Z,10.18
2024-01-15T21:49:42.529Z,12.47
2024-01-15T21:59:43.406Z,12.18
2024-01-15T22:09:55.418Z,13.53
2024-01-15T22:19:59.783Z,16.36
2024-01-15T22:30:03.756Z,16.3
2024-01-15T22:40:08.094Z,16.41
2024-01-15T22:50:13.807Z,18.09
2024-01-15T23:00:17.707Z,16.12
2024-01-15T23:10:23.472Z,15.79
2024-01-15T23:20:22.399Z,17.87
2024-01-15T23:30:23.666Z,19.46
2024-01-15T23:40:33.463Z,19.42
2024-01-15T23:50:43.387Z,17.48
